Terminal Aerodrome Forecast
Issued by NWS

Home | Current Version | Previous Version | Text Only | Print | Product List | Glossary On
Versions: 1 2 3 4 5 6 7 8 9 10 11 12 13 14 15 16 17 18 19 20 21
000
FTUS46 KSEW 292347 CCA
TAFHQM
TAF COR
KHQM 292347Z 3000/3024 23010KT P6SM BKN008
      TEMPO 3000/3002 SCT008
     FM300200 22008KT P6SM BKN006
     FM300500 24006KT 5SM BR OVC004
     FM301200 24004KT 2SM BR OVC004
     FM301700 24004KT P6SM OVC007
     FM302000 24012KT P6SM BKN015=

USA.gov is the U.S. government's official web portal to all federal, state and local government web resources and services.